首页
METAR-TAF:

METAR-TAF

机场 :

諾曼頓, 澳大利亚

纬度: 17-41-06S, 经度: 141-04-12E, 海拔: 22米

当前天气观测

该预报发布于1小时和8分钟前的01:00 UTC
风速7节,风向北转东北,在东转东北之间变化
温度 28°C
湿度 48%
气压 1017 hPa
能见度10公里或以上

METAR: YNTN 310100Z AUTO 03007KT 010V070 9999 // NCD 28/16 Q1017

时间: 12:08 (02:08 UTC)


TAF: 丢失

超过4000个机场的气象观测和天气预报(METAR&TAF报告)。

可查询的气象台以黄色和红色小点在地图上表示。

将鼠标移到小点上方,可查看气象台名称。

然后点击查看天气观测和预报。

如需切换地图:点击带黑十字的绿色按钮放大地图;点击带横线的绿色按钮缩小地图;或者点击绿色箭头查看邻近地区的地图。


METAR-TAF: